sensor_id;sensor_type;location;lat;lon;timestamp;P1;durP1;ratioP1;P2;durP2;ratioP2
13269;SDS011;6703;51.994;7.570;2023-04-03T00:02:09;6.50;;;1.40;;
13269;SDS011;6703;51.994;7.570;2023-04-03T00:04:36;6.60;;;1.10;;
13269;SDS011;6703;51.994;7.570;2023-04-03T00:07:04;6.38;;;1.20;;
13269;SDS011;6703;51.994;7.570;2023-04-03T00:09:32;5.70;;;1.40;;
13269;SDS011;6703;51.994;7.570;2023-04-03T00:12:00;2.53;;;0.95;;
13269;SDS011;6703;51.994;7.570;2023-04-03T00:14:27;4.20;;;1.20;;
13269;SDS011;6703;51.994;7.570;2023-04-03T00:16:55;7.57;;;1.30;;
13269;SDS011;6703;51.994;7.570;2023-04-03T00:19:24;10.23;;;1.30;;
13269;SDS011;6703;51.994;7.570;2023-04-03T00:21:52;3.67;;;1.10;;
13269;SDS011;6703;51.994;7.570;2023-04-03T00:24:20;6.85;;;1.45;;
13269;SDS011;6703;51.994;7.570;2023-04-03T00:26:48;5.35;;;1.25;;
13269;SDS011;6703;51.994;7.570;2023-04-03T00:29:16;6.90;;;1.23;;
13269;SDS011;6703;51.994;7.570;2023-04-03T00:31:44;5.45;;;1.40;;
13269;SDS011;6703;51.994;7.570;2023-04-03T00:34:11;4.15;;;1.30;;
13269;SDS011;6703;51.994;7.570;2023-04-03T00:36:41;3.55;;;1.30;;
13269;SDS011;6703;51.994;7.570;2023-04-03T00:39:08;3.80;;;1.15;;
13269;SDS011;6703;51.994;7.570;2023-04-03T00:41:36;8.20;;;1.30;;
13269;SDS011;6703;51.994;7.570;2023-04-03T00:44:18;6.07;;;1.52;;
13269;SDS011;6703;51.994;7.570;2023-04-03T00:46:47;6.38;;;1.20;;
13269;SDS011;6703;51.994;7.570;2023-04-03T00:49:14;5.22;;;1.13;;
13269;SDS011;6703;51.994;7.570;2023-04-03T00:51:44;4.47;;;1.10;;
13269;SDS011;6703;51.994;7.570;2023-04-03T00:54:11;5.47;;;1.40;;
13269;SDS011;6703;51.994;7.570;2023-04-03T00:56:46;4.17;;;1.37;;
13269;SDS011;6703;51.994;7.570;2023-04-03T00:59:15;7.70;;;1.75;;
13269;SDS011;6703;51.994;7.570;2023-04-03T01:01:44;5.15;;;1.40;;
13269;SDS011;6703;51.994;7.570;2023-04-03T01:04:24;7.00;;;1.58;;
13269;SDS011;6703;51.994;7.570;2023-04-03T01:06:56;5.10;;;1.38;;
13269;SDS011;6703;51.994;7.570;2023-04-03T01:09:25;8.93;;;1.30;;
13269;SDS011;6703;51.994;7.570;2023-04-03T01:11:53;5.85;;;1.50;;
13269;SDS011;6703;51.994;7.570;2023-04-03T01:14:21;6.18;;;1.48;;
13269;SDS011;6703;51.994;7.570;2023-04-03T01:16:52;5.80;;;1.55;;
13269;SDS011;6703;51.994;7.570;2023-04-03T01:19:20;5.80;;;1.25;;
13269;SDS011;6703;51.994;7.570;2023-04-03T01:22:05;5.25;;;1.48;;
13269;SDS011;6703;51.994;7.570;2023-04-03T01:24:41;8.80;;;1.60;;
13269;SDS011;6703;51.994;7.570;2023-04-03T01:27:09;6.35;;;1.33;;
13269;SDS011;6703;51.994;7.570;2023-04-03T01:29:38;4.75;;;1.20;;
13269;SDS011;6703;51.994;7.570;2023-04-03T01:32:08;6.50;;;1.25;;
13269;SDS011;6703;51.994;7.570;2023-04-03T01:34:36;3.53;;;1.30;;
13269;SDS011;6703;51.994;7.570;2023-04-03T01:37:04;7.25;;;1.42;;
13269;SDS011;6703;51.994;7.570;2023-04-03T01:39:32;6.05;;;1.33;;
13269;SDS011;6703;51.994;7.570;2023-04-03T01:41:59;6.33;;;1.67;;
13269;SDS011;6703;51.994;7.570;2023-04-03T01:44:27;3.17;;;1.10;;
13269;SDS011;6703;51.994;7.570;2023-04-03T01:46:55;7.68;;;1.80;;
13269;SDS011;6703;51.994;7.570;2023-04-03T01:49:24;5.32;;;1.25;;
13269;SDS011;6703;51.994;7.570;2023-04-03T01:51:52;12.18;;;1.50;;
13269;SDS011;6703;51.994;7.570;2023-04-03T01:54:19;2.78;;;1.30;;
13269;SDS011;6703;51.994;7.570;2023-04-03T01:56:47;8.40;;;1.48;;
13269;SDS011;6703;51.994;7.570;2023-04-03T01:59:15;8.50;;;1.15;;
13269;SDS011;6703;51.994;7.570;2023-04-03T02:01:44;7.43;;;1.60;;
13269;SDS011;6703;51.994;7.570;2023-04-03T02:04:12;6.82;;;1.73;;
13269;SDS011;6703;51.994;7.570;2023-04-03T02:06:41;4.60;;;1.40;;
13269;SDS011;6703;51.994;7.570;2023-04-03T02:09:09;9.15;;;1.50;;
13269;SDS011;6703;51.994;7.570;2023-04-03T02:11:37;3.93;;;1.70;;
13269;SDS011;6703;51.994;7.570;2023-04-03T02:14:04;6.15;;;1.40;;
13269;SDS011;6703;51.994;7.570;2023-04-03T02:16:32;8.52;;;1.55;;
13269;SDS011;6703;51.994;7.570;2023-04-03T02:19:00;4.30;;;1.53;;
13269;SDS011;6703;51.994;7.570;2023-04-03T02:21:28;10.70;;;1.40;;
13269;SDS011;6703;51.994;7.570;2023-04-03T02:23:57;8.02;;;1.30;;
13269;SDS011;6703;51.994;7.570;2023-04-03T02:26:25;3.72;;;1.10;;
13269;SDS011;6703;51.994;7.570;2023-04-03T02:28:53;5.30;;;1.48;;
13269;SDS011;6703;51.994;7.570;2023-04-03T02:31:20;8.38;;;1.52;;
13269;SDS011;6703;51.994;7.570;2023-04-03T02:33:48;6.68;;;1.45;;
13269;SDS011;6703;51.994;7.570;2023-04-03T02:36:16;12.40;;;1.55;;
13269;SDS011;6703;51.994;7.570;2023-04-03T02:38:44;6.85;;;1.60;;
13269;SDS011;6703;51.994;7.570;2023-04-03T02:41:13;12.75;;;1.42;;
13269;SDS011;6703;51.994;7.570;2023-04-03T02:43:41;6.57;;;1.20;;
13269;SDS011;6703;51.994;7.570;2023-04-03T02:46:09;5.38;;;1.27;;
13269;SDS011;6703;51.994;7.570;2023-04-03T02:48:37;7.40;;;1.40;;
13269;SDS011;6703;51.994;7.570;2023-04-03T02:51:04;7.43;;;1.50;;
13269;SDS011;6703;51.994;7.570;2023-04-03T02:53:32;7.63;;;1.50;;
13269;SDS011;6703;51.994;7.570;2023-04-03T02:56:00;7.57;;;2.00;;
13269;SDS011;6703;51.994;7.570;2023-04-03T02:58:29;6.45;;;1.70;;
13269;SDS011;6703;51.994;7.570;2023-04-03T03:00:56;5.63;;;1.30;;
13269;SDS011;6703;51.994;7.570;2023-04-03T03:03:24;8.90;;;1.53;;
13269;SDS011;6703;51.994;7.570;2023-04-03T03:06:00;5.80;;;1.40;;
13269;SDS011;6703;51.994;7.570;2023-04-03T03:08:28;11.13;;;1.70;;
13269;SDS011;6703;51.994;7.570;2023-04-03T03:10:56;9.10;;;1.58;;
13269;SDS011;6703;51.994;7.570;2023-04-03T03:13:24;4.15;;;1.30;;
13269;SDS011;6703;51.994;7.570;2023-04-03T03:15:53;6.55;;;1.83;;
13269;SDS011;6703;51.994;7.570;2023-04-03T03:18:21;6.68;;;1.70;;
13269;SDS011;6703;51.994;7.570;2023-04-03T03:20:50;9.88;;;1.50;;
13269;SDS011;6703;51.994;7.570;2023-04-03T03:23:19;11.73;;;1.80;;
13269;SDS011;6703;51.994;7.570;2023-04-03T03:25:47;5.72;;;1.35;;
13269;SDS011;6703;51.994;7.570;2023-04-03T03:28:14;8.40;;;1.50;;
13269;SDS011;6703;51.994;7.570;2023-04-03T03:30:42;8.00;;;1.80;;
13269;SDS011;6703;51.994;7.570;2023-04-03T03:33:11;6.35;;;1.73;;
13269;SDS011;6703;51.994;7.570;2023-04-03T03:35:39;5.72;;;1.90;;
13269;SDS011;6703;51.994;7.570;2023-04-03T03:38:07;7.40;;;1.63;;
13269;SDS011;6703;51.994;7.570;2023-04-03T03:40:34;7.55;;;1.63;;
13269;SDS011;6703;51.994;7.570;2023-04-03T03:43:02;7.18;;;1.60;;
13269;SDS011;6703;51.994;7.570;2023-04-03T03:45:30;9.57;;;1.70;;
13269;SDS011;6703;51.994;7.570;2023-04-03T03:47:58;8.65;;;1.73;;
13269;SDS011;6703;51.994;7.570;2023-04-03T03:50:27;7.57;;;1.85;;
13269;SDS011;6703;51.994;7.570;2023-04-03T03:52:55;8.82;;;1.55;;
13269;SDS011;6703;51.994;7.570;2023-04-03T03:55:23;6.00;;;1.85;;
13269;SDS011;6703;51.994;7.570;2023-04-03T03:57:51;8.63;;;1.77;;
13269;SDS011;6703;51.994;7.570;2023-04-03T04:00:19;5.00;;;1.23;;
13269;SDS011;6703;51.994;7.570;2023-04-03T04:02:46;6.47;;;1.70;;
13269;SDS011;6703;51.994;7.570;2023-04-03T04:05:14;7.88;;;2.05;;
13269;SDS011;6703;51.994;7.570;2023-04-03T04:07:43;12.50;;;1.75;;
13269;SDS011;6703;51.994;7.570;2023-04-03T04:10:11;5.60;;;1.50;;
13269;SDS011;6703;51.994;7.570;2023-04-03T04:12:39;7.70;;;1.60;;
13269;SDS011;6703;51.994;7.570;2023-04-03T04:15:08;5.53;;;1.60;;
13269;SDS011;6703;51.994;7.570;2023-04-03T04:17:36;5.18;;;1.45;;
13269;SDS011;6703;51.994;7.570;2023-04-03T04:20:04;7.60;;;1.60;;
13269;SDS011;6703;51.994;7.570;2023-04-03T04:22:32;8.57;;;1.77;;
13269;SDS011;6703;51.994;7.570;2023-04-03T04:25:02;7.10;;;1.67;;
13269;SDS011;6703;51.994;7.570;2023-04-03T04:27:30;5.95;;;1.58;;
13269;SDS011;6703;51.994;7.570;2023-04-03T04:29:57;6.70;;;1.75;;
13269;SDS011;6703;51.994;7.570;2023-04-03T04:32:25;9.23;;;1.60;;
13269;SDS011;6703;51.994;7.570;2023-04-03T04:34:53;11.10;;;1.63;;
13269;SDS011;6703;51.994;7.570;2023-04-03T04:37:21;6.85;;;1.77;;
13269;SDS011;6703;51.994;7.570;2023-04-03T04:39:48;7.17;;;1.67;;
13269;SDS011;6703;51.994;7.570;2023-04-03T04:42:17;9.10;;;1.90;;
13269;SDS011;6703;51.994;7.570;2023-04-03T04:44:45;10.50;;;2.05;;
13269;SDS011;6703;51.994;7.570;2023-04-03T04:47:13;6.27;;;1.57;;
13269;SDS011;6703;51.994;7.570;2023-04-03T04:49:56;11.43;;;1.90;;
13269;SDS011;6703;51.994;7.570;2023-04-03T04:52:24;9.50;;;1.73;;
13269;SDS011;6703;51.994;7.570;2023-04-03T04:57:44;7.32;;;1.55;;
13269;SDS011;6703;51.994;7.570;2023-04-03T05:00:12;8.57;;;1.60;;
13269;SDS011;6703;51.994;7.570;2023-04-03T05:02:41;11.82;;;2.00;;
13269;SDS011;6703;51.994;7.570;2023-04-03T05:05:08;6.80;;;1.63;;
13269;SDS011;6703;51.994;7.570;2023-04-03T05:07:36;12.55;;;1.80;;
13269;SDS011;6703;51.994;7.570;2023-04-03T05:10:04;11.98;;;1.52;;
13269;SDS011;6703;51.994;7.570;2023-04-03T05:12:33;9.63;;;1.65;;
13269;SDS011;6703;51.994;7.570;2023-04-03T05:15:03;6.90;;;1.52;;
13269;SDS011;6703;51.994;7.570;2023-04-03T05:17:31;12.13;;;1.73;;
13269;SDS011;6703;51.994;7.570;2023-04-03T05:19:59;7.30;;;1.65;;
13269;SDS011;6703;51.994;7.570;2023-04-03T05:22:26;7.55;;;1.58;;
13269;SDS011;6703;51.994;7.570;2023-04-03T05:24:54;6.90;;;1.63;;
13269;SDS011;6703;51.994;7.570;2023-04-03T05:27:22;12.48;;;2.00;;
13269;SDS011;6703;51.994;7.570;2023-04-03T05:29:52;12.33;;;2.00;;
13269;SDS011;6703;51.994;7.570;2023-04-03T05:32:21;9.50;;;1.60;;
13269;SDS011;6703;51.994;7.570;2023-04-03T05:34:49;9.32;;;1.60;;
13269;SDS011;6703;51.994;7.570;2023-04-03T05:37:17;11.45;;;1.60;;
13269;SDS011;6703;51.994;7.570;2023-04-03T05:39:45;4.70;;;1.42;;
13269;SDS011;6703;51.994;7.570;2023-04-03T05:42:13;8.18;;;1.50;;
13269;SDS011;6703;51.994;7.570;2023-04-03T05:44:42;11.25;;;1.48;;
13269;SDS011;6703;51.994;7.570;2023-04-03T05:47:10;9.40;;;1.77;;
13269;SDS011;6703;51.994;7.570;2023-04-03T05:49:39;10.05;;;1.65;;
13269;SDS011;6703;51.994;7.570;2023-04-03T05:52:10;10.35;;;1.70;;
13269;SDS011;6703;51.994;7.570;2023-04-03T05:54:41;11.48;;;1.70;;
13269;SDS011;6703;51.994;7.570;2023-04-03T05:57:09;10.95;;;1.80;;
13269;SDS011;6703;51.994;7.570;2023-04-03T05:59:38;8.27;;;1.65;;
13269;SDS011;6703;51.994;7.570;2023-04-03T06:02:06;6.82;;;1.60;;
13269;SDS011;6703;51.994;7.570;2023-04-03T06:04:33;11.35;;;1.33;;
13269;SDS011;6703;51.994;7.570;2023-04-03T06:07:02;9.55;;;1.83;;
13269;SDS011;6703;51.994;7.570;2023-04-03T06:09:30;9.65;;;1.92;;
13269;SDS011;6703;51.994;7.570;2023-04-03T06:12:13;14.50;;;1.73;;
13269;SDS011;6703;51.994;7.570;2023-04-03T06:14:41;10.10;;;2.22;;
13269;SDS011;6703;51.994;7.570;2023-04-03T06:17:09;7.53;;;1.75;;
13269;SDS011;6703;51.994;7.570;2023-04-03T06:19:41;7.57;;;1.80;;
13269;SDS011;6703;51.994;7.570;2023-04-03T06:22:12;9.32;;;1.90;;
13269;SDS011;6703;51.994;7.570;2023-04-03T06:24:40;7.13;;;1.75;;
13269;SDS011;6703;51.994;7.570;2023-04-03T06:27:08;8.17;;;1.73;;
13269;SDS011;6703;51.994;7.570;2023-04-03T06:33:12;8.07;;;1.48;;
13269;SDS011;6703;51.994;7.570;2023-04-03T06:35:41;7.03;;;1.48;;
13269;SDS011;6703;51.994;7.570;2023-04-03T06:38:10;6.45;;;1.60;;
13269;SDS011;6703;51.994;7.570;2023-04-03T06:40:38;9.18;;;1.58;;
13269;SDS011;6703;51.994;7.570;2023-04-03T06:43:06;10.52;;;2.20;;
13269;SDS011;6703;51.994;7.570;2023-04-03T06:45:34;6.63;;;1.27;;
13269;SDS011;6703;51.994;7.570;2023-04-03T06:51:16;7.53;;;1.40;;
13269;SDS011;6703;51.994;7.570;2023-04-03T06:53:47;7.45;;;1.40;;
13269;SDS011;6703;51.994;7.570;2023-04-03T06:56:32;4.88;;;1.55;;
13269;SDS011;6703;51.994;7.570;2023-04-03T06:59:00;9.13;;;1.48;;
13269;SDS011;6703;51.994;7.570;2023-04-03T07:01:28;12.23;;;1.52;;
13269;SDS011;6703;51.994;7.570;2023-04-03T07:03:57;5.13;;;1.10;;
13269;SDS011;6703;51.994;7.570;2023-04-03T07:06:25;6.60;;;1.30;;
13269;SDS011;6703;51.994;7.570;2023-04-03T07:08:55;10.70;;;1.92;;
13269;SDS011;6703;51.994;7.570;2023-04-03T07:11:23;6.43;;;1.15;;
13269;SDS011;6703;51.994;7.570;2023-04-03T07:13:51;5.05;;;1.25;;
13269;SDS011;6703;51.994;7.570;2023-04-03T07:18:54;7.85;;;1.50;;
13269;SDS011;6703;51.994;7.570;2023-04-03T07:21:24;4.43;;;1.73;;
13269;SDS011;6703;51.994;7.570;2023-04-03T07:23:52;3.67;;;1.35;;
13269;SDS011;6703;51.994;7.570;2023-04-03T07:26:22;3.90;;;0.82;;
13269;SDS011;6703;51.994;7.570;2023-04-03T07:28:49;5.78;;;1.10;;
13269;SDS011;6703;51.994;7.570;2023-04-03T07:31:17;9.10;;;1.30;;
13269;SDS011;6703;51.994;7.570;2023-04-03T07:33:48;9.50;;;1.60;;
13269;SDS011;6703;51.994;7.570;2023-04-03T07:36:17;5.95;;;1.45;;
13269;SDS011;6703;51.994;7.570;2023-04-03T07:38:46;5.60;;;1.23;;
13269;SDS011;6703;51.994;7.570;2023-04-03T07:41:16;3.90;;;1.30;;
13269;SDS011;6703;51.994;7.570;2023-04-03T07:43:47;5.47;;;1.08;;
13269;SDS011;6703;51.994;7.570;2023-04-03T07:46:18;8.10;;;1.57;;
13269;SDS011;6703;51.994;7.570;2023-04-03T07:48:47;7.85;;;1.48;;
13269;SDS011;6703;51.994;7.570;2023-04-03T07:51:15;7.63;;;1.20;;
13269;SDS011;6703;51.994;7.570;2023-04-03T07:53:42;10.80;;;1.27;;
13269;SDS011;6703;51.994;7.570;2023-04-03T07:56:10;8.57;;;1.10;;
13269;SDS011;6703;51.994;7.570;2023-04-03T07:58:44;2.42;;;1.02;;
13269;SDS011;6703;51.994;7.570;2023-04-03T08:01:14;6.07;;;1.20;;
13269;SDS011;6703;51.994;7.570;2023-04-03T08:03:44;4.85;;;1.27;;
13269;SDS011;6703;51.994;7.570;2023-04-03T08:06:15;2.38;;;1.02;;
13269;SDS011;6703;51.994;7.570;2023-04-03T08:08:51;8.23;;;1.08;;
13269;SDS011;6703;51.994;7.570;2023-04-03T08:11:19;6.25;;;1.40;;
13269;SDS011;6703;51.994;7.570;2023-04-03T08:13:47;5.77;;;1.07;;
13269;SDS011;6703;51.994;7.570;2023-04-03T08:16:20;3.30;;;0.82;;
13269;SDS011;6703;51.994;7.570;2023-04-03T08:18:50;3.87;;;0.83;;
13269;SDS011;6703;51.994;7.570;2023-04-03T08:21:18;4.00;;;0.98;;
13269;SDS011;6703;51.994;7.570;2023-04-03T08:23:52;6.28;;;0.90;;
13269;SDS011;6703;51.994;7.570;2023-04-03T08:26:20;3.88;;;1.10;;
13269;SDS011;6703;51.994;7.570;2023-04-03T08:28:48;3.55;;;0.80;;
13269;SDS011;6703;51.994;7.570;2023-04-03T08:31:18;3.95;;;0.80;;
13269;SDS011;6703;51.994;7.570;2023-04-03T08:33:46;3.13;;;0.85;;
13269;SDS011;6703;51.994;7.570;2023-04-03T08:36:17;2.80;;;0.80;;
13269;SDS011;6703;51.994;7.570;2023-04-03T08:38:46;2.90;;;0.90;;
13269;SDS011;6703;51.994;7.570;2023-04-03T08:41:18;6.35;;;1.10;;
13269;SDS011;6703;51.994;7.570;2023-04-03T08:43:54;3.20;;;0.70;;
13269;SDS011;6703;51.994;7.570;2023-04-03T08:46:30;2.50;;;0.68;;
13269;SDS011;6703;51.994;7.570;2023-04-03T08:49:03;5.43;;;1.00;;
13269;SDS011;6703;51.994;7.570;2023-04-03T08:51:32;5.50;;;0.80;;
13269;SDS011;6703;51.994;7.570;2023-04-03T08:54:01;3.78;;;0.90;;
13269;SDS011;6703;51.994;7.570;2023-04-03T08:56:30;2.90;;;0.57;;
13269;SDS011;6703;51.994;7.570;2023-04-03T08:58:59;2.85;;;0.80;;
13269;SDS011;6703;51.994;7.570;2023-04-03T09:01:34;2.75;;;0.90;;
13269;SDS011;6703;51.994;7.570;2023-04-03T09:04:08;3.10;;;0.73;;
13269;SDS011;6703;51.994;7.570;2023-04-03T09:06:39;3.47;;;0.85;;
13269;SDS011;6703;51.994;7.570;2023-04-03T09:09:12;2.22;;;0.70;;
13269;SDS011;6703;51.994;7.570;2023-04-03T09:11:46;5.28;;;0.70;;
13269;SDS011;6703;51.994;7.570;2023-04-03T09:14:20;2.38;;;0.70;;
13269;SDS011;6703;51.994;7.570;2023-04-03T09:16:54;6.88;;;0.77;;
13269;SDS011;6703;51.994;7.570;2023-04-03T09:19:31;1.90;;;0.80;;
13269;SDS011;6703;51.994;7.570;2023-04-03T09:22:13;3.65;;;1.05;;
13269;SDS011;6703;51.994;7.570;2023-04-03T09:24:44;2.97;;;0.70;;
13269;SDS011;6703;51.994;7.570;2023-04-03T09:27:25;1.75;;;0.80;;
13269;SDS011;6703;51.994;7.570;2023-04-03T09:29:53;3.65;;;0.60;;
13269;SDS011;6703;51.994;7.570;2023-04-03T09:32:25;5.32;;;1.17;;
13269;SDS011;6703;51.994;7.570;2023-04-03T09:34:56;4.25;;;0.90;;
13269;SDS011;6703;51.994;7.570;2023-04-03T09:37:37;4.15;;;0.80;;
13269;SDS011;6703;51.994;7.570;2023-04-03T09:40:27;4.82;;;1.10;;
13269;SDS011;6703;51.994;7.570;2023-04-03T09:43:19;3.75;;;0.70;;
13269;SDS011;6703;51.994;7.570;2023-04-03T09:45:49;2.67;;;0.50;;
13269;SDS011;6703;51.994;7.570;2023-04-03T09:48:20;3.30;;;0.88;;
13269;SDS011;6703;51.994;7.570;2023-04-03T09:50:53;3.70;;;0.65;;
13269;SDS011;6703;51.994;7.570;2023-04-03T09:53:27;3.80;;;0.80;;
13269;SDS011;6703;51.994;7.570;2023-04-03T09:55:56;2.27;;;0.97;;
13269;SDS011;6703;51.994;7.570;2023-04-03T09:58:26;4.65;;;0.70;;
13269;SDS011;6703;51.994;7.570;2023-04-03T10:01:20;3.15;;;0.90;;
13269;SDS011;6703;51.994;7.570;2023-04-03T10:04:03;5.03;;;0.60;;
13269;SDS011;6703;51.994;7.570;2023-04-03T10:06:37;3.85;;;0.60;;
13269;SDS011;6703;51.994;7.570;2023-04-03T10:09:16;3.28;;;0.50;;
13269;SDS011;6703;51.994;7.570;2023-04-03T10:12:00;4.75;;;0.80;;
13269;SDS011;6703;51.994;7.570;2023-04-03T10:14:31;2.45;;;0.60;;
13269;SDS011;6703;51.994;7.570;2023-04-03T10:17:02;2.60;;;0.50;;
13269;SDS011;6703;51.994;7.570;2023-04-03T10:19:40;5.53;;;0.80;;
13269;SDS011;6703;51.994;7.570;2023-04-03T10:22:13;2.60;;;0.65;;
13269;SDS011;6703;51.994;7.570;2023-04-03T10:24:52;3.30;;;1.00;;
13269;SDS011;6703;51.994;7.570;2023-04-03T10:27:24;3.03;;;0.77;;
13269;SDS011;6703;51.994;7.570;2023-04-03T10:29:59;3.50;;;0.87;;
13269;SDS011;6703;51.994;7.570;2023-04-03T10:32:36;4.38;;;0.90;;
13269;SDS011;6703;51.994;7.570;2023-04-03T10:35:14;3.20;;;0.80;;
13269;SDS011;6703;51.994;7.570;2023-04-03T10:37:57;4.95;;;0.90;;
13269;SDS011;6703;51.994;7.570;2023-04-03T10:43:55;6.55;;;0.95;;
13269;SDS011;6703;51.994;7.570;2023-04-03T10:47:12;2.35;;;0.75;;
13269;SDS011;6703;51.994;7.570;2023-04-03T10:49:46;4.47;;;0.80;;
13269;SDS011;6703;51.994;7.570;2023-04-03T10:52:28;4.35;;;0.90;;
13269;SDS011;6703;51.994;7.570;2023-04-03T10:55:02;5.68;;;0.90;;
13269;SDS011;6703;51.994;7.570;2023-04-03T10:57:36;5.00;;;1.00;;
13269;SDS011;6703;51.994;7.570;2023-04-03T11:00:05;4.65;;;0.93;;
13269;SDS011;6703;51.994;7.570;2023-04-03T11:02:36;5.15;;;1.00;;
13269;SDS011;6703;51.994;7.570;2023-04-03T11:05:06;5.73;;;0.87;;
13269;SDS011;6703;51.994;7.570;2023-04-03T11:07:45;4.65;;;0.70;;
13269;SDS011;6703;51.994;7.570;2023-04-03T11:10:22;2.95;;;0.63;;
13269;SDS011;6703;51.994;7.570;2023-04-03T11:15:38;3.13;;;1.08;;
13269;SDS011;6703;51.994;7.570;2023-04-03T11:18:06;2.90;;;1.03;;
13269;SDS011;6703;51.994;7.570;2023-04-03T11:20:37;5.30;;;0.90;;
13269;SDS011;6703;51.994;7.570;2023-04-03T11:23:10;2.42;;;0.90;;
13269;SDS011;6703;51.994;7.570;2023-04-03T11:25:41;3.17;;;0.70;;
13269;SDS011;6703;51.994;7.570;2023-04-03T11:28:11;3.33;;;0.60;;
13269;SDS011;6703;51.994;7.570;2023-04-03T11:30:41;4.70;;;0.60;;
13269;SDS011;6703;51.994;7.570;2023-04-03T11:33:19;5.70;;;1.15;;
13269;SDS011;6703;51.994;7.570;2023-04-03T11:35:51;3.47;;;0.80;;
13269;SDS011;6703;51.994;7.570;2023-04-03T11:38:22;3.58;;;0.70;;
13269;SDS011;6703;51.994;7.570;2023-04-03T11:40:52;5.85;;;1.20;;
13269;SDS011;6703;51.994;7.570;2023-04-03T11:43:22;4.83;;;0.90;;
13269;SDS011;6703;51.994;7.570;2023-04-03T11:45:53;2.30;;;0.77;;
13269;SDS011;6703;51.994;7.570;2023-04-03T11:48:45;4.63;;;0.80;;
13269;SDS011;6703;51.994;7.570;2023-04-03T11:51:38;3.45;;;1.10;;
13269;SDS011;6703;51.994;7.570;2023-04-03T12:03:33;5.33;;;1.00;;
13269;SDS011;6703;51.994;7.570;2023-04-03T12:09:22;5.25;;;0.82;;
13269;SDS011;6703;51.994;7.570;2023-04-03T12:11:52;3.75;;;0.82;;
13269;SDS011;6703;51.994;7.570;2023-04-03T12:14:22;4.22;;;0.70;;
13269;SDS011;6703;51.994;7.570;2023-04-03T12:16:50;5.43;;;0.90;;
13269;SDS011;6703;51.994;7.570;2023-04-03T12:19:27;5.65;;;0.90;;
13269;SDS011;6703;51.994;7.570;2023-04-03T12:22:09;3.17;;;0.98;;
13269;SDS011;6703;51.994;7.570;2023-04-03T12:24:42;3.70;;;0.80;;
13269;SDS011;6703;51.994;7.570;2023-04-03T12:27:26;5.10;;;0.88;;
13269;SDS011;6703;51.994;7.570;2023-04-03T12:29:59;5.13;;;0.80;;
13269;SDS011;6703;51.994;7.570;2023-04-03T12:32:35;2.50;;;0.75;;
13269;SDS011;6703;51.994;7.570;2023-04-03T12:35:14;3.38;;;1.30;;
13269;SDS011;6703;51.994;7.570;2023-04-03T12:37:54;3.22;;;0.88;;
13269;SDS011;6703;51.994;7.570;2023-04-03T12:40:31;2.55;;;0.70;;
13269;SDS011;6703;51.994;7.570;2023-04-03T12:43:12;2.40;;;0.75;;
13269;SDS011;6703;51.994;7.570;2023-04-03T12:45:49;4.30;;;0.90;;
13269;SDS011;6703;51.994;7.570;2023-04-03T12:48:22;3.83;;;1.10;;
13269;SDS011;6703;51.994;7.570;2023-04-03T12:50:52;2.73;;;0.80;;
13269;SDS011;6703;51.994;7.570;2023-04-03T12:53:22;3.03;;;0.82;;
13269;SDS011;6703;51.994;7.570;2023-04-03T12:55:53;3.83;;;0.90;;
13269;SDS011;6703;51.994;7.570;2023-04-03T12:58:23;3.70;;;1.38;;
13269;SDS011;6703;51.994;7.570;2023-04-03T13:00:59;6.70;;;1.80;;
13269;SDS011;6703;51.994;7.570;2023-04-03T13:03:28;2.57;;;0.80;;
13269;SDS011;6703;51.994;7.570;2023-04-03T13:05:58;3.78;;;1.00;;
13269;SDS011;6703;51.994;7.570;2023-04-03T13:08:28;2.17;;;1.00;;
13269;SDS011;6703;51.994;7.570;2023-04-03T13:10:58;5.07;;;0.93;;
13269;SDS011;6703;51.994;7.570;2023-04-03T13:13:29;4.20;;;1.35;;
13269;SDS011;6703;51.994;7.570;2023-04-03T13:15:57;3.75;;;0.80;;
13269;SDS011;6703;51.994;7.570;2023-04-03T13:18:28;4.45;;;0.77;;
13269;SDS011;6703;51.994;7.570;2023-04-03T13:20:58;2.47;;;0.75;;
13269;SDS011;6703;51.994;7.570;2023-04-03T13:23:29;4.53;;;1.00;;
13269;SDS011;6703;51.994;7.570;2023-04-03T13:25:58;3.28;;;1.02;;
13269;SDS011;6703;51.994;7.570;2023-04-03T13:28:31;2.45;;;0.73;;
13269;SDS011;6703;51.994;7.570;2023-04-03T13:31:01;4.00;;;0.88;;
13269;SDS011;6703;51.994;7.570;2023-04-03T13:33:32;5.20;;;0.80;;
13269;SDS011;6703;51.994;7.570;2023-04-03T13:36:25;4.05;;;1.00;;
13269;SDS011;6703;51.994;7.570;2023-04-03T13:38:59;5.68;;;0.88;;
13269;SDS011;6703;51.994;7.570;2023-04-03T13:41:29;3.35;;;0.93;;
13269;SDS011;6703;51.994;7.570;2023-04-03T13:46:52;4.90;;;1.00;;
13269;SDS011;6703;51.994;7.570;2023-04-03T13:49:22;3.75;;;0.90;;
13269;SDS011;6703;51.994;7.570;2023-04-03T13:51:55;4.38;;;0.88;;
13269;SDS011;6703;51.994;7.570;2023-04-03T13:54:34;3.22;;;1.00;;
13269;SDS011;6703;51.994;7.570;2023-04-03T13:57:10;6.55;;;1.00;;
13269;SDS011;6703;51.994;7.570;2023-04-03T13:59:41;3.95;;;1.00;;
13269;SDS011;6703;51.994;7.570;2023-04-03T14:02:14;4.90;;;0.93;;
13269;SDS011;6703;51.994;7.570;2023-04-03T14:04:46;5.53;;;1.08;;
13269;SDS011;6703;51.994;7.570;2023-04-03T14:07:17;6.35;;;1.00;;
13269;SDS011;6703;51.994;7.570;2023-04-03T14:09:46;3.25;;;0.88;;
13269;SDS011;6703;51.994;7.570;2023-04-03T14:12:15;2.47;;;0.73;;
13269;SDS011;6703;51.994;7.570;2023-04-03T14:14:57;4.53;;;0.80;;
13269;SDS011;6703;51.994;7.570;2023-04-03T14:17:26;3.33;;;0.80;;
13269;SDS011;6703;51.994;7.570;2023-04-03T14:19:54;6.45;;;0.88;;
13269;SDS011;6703;51.994;7.570;2023-04-03T14:22:24;6.05;;;0.93;;
13269;SDS011;6703;51.994;7.570;2023-04-03T14:24:53;3.58;;;0.80;;
13269;SDS011;6703;51.994;7.570;2023-04-03T14:27:22;5.88;;;1.08;;
13269;SDS011;6703;51.994;7.570;2023-04-03T14:29:51;3.20;;;1.00;;
13269;SDS011;6703;51.994;7.570;2023-04-03T14:32:21;2.33;;;0.80;;
13269;SDS011;6703;51.994;7.570;2023-04-03T14:34:50;5.55;;;1.10;;
13269;SDS011;6703;51.994;7.570;2023-04-03T14:37:20;3.63;;;1.10;;
13269;SDS011;6703;51.994;7.570;2023-04-03T14:39:50;4.00;;;1.00;;
13269;SDS011;6703;51.994;7.570;2023-04-03T14:42:20;3.70;;;1.20;;
13269;SDS011;6703;51.994;7.570;2023-04-03T14:44:50;4.82;;;1.20;;
13269;SDS011;6703;51.994;7.570;2023-04-03T14:47:18;3.70;;;0.88;;
13269;SDS011;6703;51.994;7.570;2023-04-03T14:49:57;4.23;;;1.00;;
13269;SDS011;6703;51.994;7.570;2023-04-03T14:52:26;4.50;;;0.90;;
13269;SDS011;6703;51.994;7.570;2023-04-03T14:54:55;3.45;;;0.98;;
13269;SDS011;6703;51.994;7.570;2023-04-03T14:57:23;3.25;;;0.90;;
13269;SDS011;6703;51.994;7.570;2023-04-03T14:59:52;2.88;;;1.13;;
13269;SDS011;6703;51.994;7.570;2023-04-03T15:02:25;2.63;;;0.80;;
13269;SDS011;6703;51.994;7.570;2023-04-03T15:04:55;2.88;;;1.00;;
13269;SDS011;6703;51.994;7.570;2023-04-03T15:07:23;2.20;;;0.90;;
13269;SDS011;6703;51.994;7.570;2023-04-03T15:09:51;4.65;;;0.90;;
13269;SDS011;6703;51.994;7.570;2023-04-03T15:12:22;3.03;;;1.00;;
13269;SDS011;6703;51.994;7.570;2023-04-03T15:14:50;4.85;;;1.08;;
13269;SDS011;6703;51.994;7.570;2023-04-03T15:17:28;4.80;;;0.93;;
13269;SDS011;6703;51.994;7.570;2023-04-03T15:19:56;5.65;;;1.23;;
13269;SDS011;6703;51.994;7.570;2023-04-03T15:22:24;4.25;;;0.95;;
13269;SDS011;6703;51.994;7.570;2023-04-03T15:24:51;2.15;;;0.93;;
13269;SDS011;6703;51.994;7.570;2023-04-03T15:27:19;3.75;;;1.13;;
13269;SDS011;6703;51.994;7.570;2023-04-03T15:29:57;2.47;;;0.68;;
13269;SDS011;6703;51.994;7.570;2023-04-03T15:32:25;3.63;;;1.00;;
13269;SDS011;6703;51.994;7.570;2023-04-03T15:34:58;2.10;;;0.80;;
13269;SDS011;6703;51.994;7.570;2023-04-03T15:37:25;3.60;;;0.93;;
13269;SDS011;6703;51.994;7.570;2023-04-03T15:39:53;3.60;;;0.90;;
13269;SDS011;6703;51.994;7.570;2023-04-03T15:42:21;2.03;;;0.80;;
13269;SDS011;6703;51.994;7.570;2023-04-03T15:44:49;3.47;;;1.20;;
13269;SDS011;6703;51.994;7.570;2023-04-03T15:47:16;4.10;;;1.17;;
13269;SDS011;6703;51.994;7.570;2023-04-03T15:49:44;3.93;;;0.73;;
13269;SDS011;6703;51.994;7.570;2023-04-03T15:52:13;3.53;;;1.00;;
13269;SDS011;6703;51.994;7.570;2023-04-03T15:54:41;3.07;;;1.00;;
13269;SDS011;6703;51.994;7.570;2023-04-03T15:57:09;3.28;;;0.80;;